createdAt,value
2023-05-05T00:01:50.509Z,98004.83
2023-05-05T00:04:18.446Z,98003.39
2023-05-05T00:06:46.707Z,98004.56
2023-05-05T00:09:15.282Z,97999.61
2023-05-05T00:11:43.036Z,97997.75
2023-05-05T00:14:11.328Z,97990.33
2023-05-05T00:16:39.439Z,97987.52
2023-05-05T00:19:07.340Z,97987.27
2023-05-05T00:21:35.211Z,97987.96
2023-05-05T00:24:03.199Z,97986.32
2023-05-05T00:26:31.284Z,97990.64
2023-05-05T00:28:59.376Z,97994.52
2023-05-05T00:31:27.207Z,98000.52
2023-05-05T00:33:55.377Z,98001.48
2023-05-05T00:36:23.546Z,98001.39
2023-05-05T00:38:51.608Z,98002.73
2023-05-05T00:41:19.483Z,97999.83
2023-05-05T00:43:47.454Z,97996.33
2023-05-05T00:46:26.338Z,97992.59
2023-05-05T00:48:54.776Z,97991.12
2023-05-05T00:51:24.664Z,97994.33
2023-05-05T00:53:53.045Z,97995.05
2023-05-05T00:56:22.231Z,97993.79
2023-05-05T00:58:50.326Z,97989.77
2023-05-05T01:01:19.149Z,97992.38
2023-05-05T01:03:47.167Z,97996.95
2023-05-05T01:06:34.939Z,97999.05
2023-05-05T01:09:04.519Z,98000.98
2023-05-05T01:11:38.819Z,97999.02
2023-05-05T01:14:09.971Z,97994.92
2023-05-05T01:16:41.862Z,97998.73
2023-05-05T01:19:19.028Z,97998.52
2023-05-05T01:21:48.928Z,97997.88
2023-05-05T01:24:35.759Z,98000.64
2023-05-05T01:27:12.930Z,97999.66
2023-05-05T01:29:41.940Z,97998.97
2023-05-05T01:32:11.438Z,97999.70
2023-05-05T01:34:44.076Z,97998.17
2023-05-05T01:37:15.365Z,97998.77
2023-05-05T01:39:43.888Z,97998.80
2023-05-05T01:42:15.284Z,97996.59
2023-05-05T01:44:44.706Z,97994.03
2023-05-05T01:47:14.721Z,97992.86
2023-05-05T01:49:46.959Z,97993.18
2023-05-05T01:52:15.947Z,97998.88
2023-05-05T01:54:48.022Z,97998.84
2023-05-05T01:57:17.059Z,97994.96
2023-05-05T01:59:44.974Z,97998.05
2023-05-05T02:02:13.463Z,97999.11
2023-05-05T02:04:43.688Z,97996.39
2023-05-05T02:07:12.886Z,97997.73
2023-05-05T02:09:42.571Z,97989.98
2023-05-05T02:12:11.086Z,97991.35
2023-05-05T02:14:39.655Z,97991.14
2023-05-05T02:17:07.916Z,97991.20
2023-05-05T02:19:40.190Z,97993.44
2023-05-05T02:22:08.209Z,97990.88
2023-05-05T02:24:36.341Z,97991.90
2023-05-05T02:27:07.486Z,97987.95
2023-05-05T02:29:37.021Z,97993.52
2023-05-05T02:32:07.001Z,97995.84
2023-05-05T02:34:36.705Z,97997.34
2023-05-05T02:37:08.062Z,97996.33
2023-05-05T02:39:47.798Z,97999.48
2023-05-05T02:42:20.781Z,98000.03
2023-05-05T02:44:50.898Z,97999.71
2023-05-05T02:47:20.714Z,98001.15
2023-05-05T02:49:49.216Z,98001.23
2023-05-05T02:52:17.365Z,98000.06
2023-05-05T02:54:45.750Z,98001.29
2023-05-05T02:57:18.587Z,98004.75
2023-05-05T02:59:53.349Z,98003.83
2023-05-05T03:02:24.684Z,98001.33
2023-05-05T03:04:59.324Z,98006.38
2023-05-05T03:07:49.842Z,98005.42
2023-05-05T03:10:21.794Z,98004.02
2023-05-05T03:12:57.462Z,98003.75
2023-05-05T03:15:43.623Z,98005.69
2023-05-05T03:18:12.483Z,98006.23
2023-05-05T03:20:42.813Z,98006.20
2023-05-05T03:23:13.475Z,98009.95
2023-05-05T03:25:46.058Z,98010.70
2023-05-05T03:28:19.805Z,98009.92
2023-05-05T03:30:47.949Z,98011.72
2023-05-05T03:33:16.712Z,98014.19
2023-05-05T03:35:44.682Z,98015.35
2023-05-05T03:38:13.462Z,98015.11
2023-05-05T03:40:44.590Z,98012.95
2023-05-05T03:43:15.158Z,98012.66
2023-05-05T03:45:43.220Z,98016.22
2023-05-05T03:48:12.103Z,98017.58
2023-05-05T03:50:40.885Z,98020.63
2023-05-05T03:53:09.048Z,98016.98
2023-05-05T03:55:37.528Z,98018.40
2023-05-05T03:58:05.403Z,98016.89
2023-05-05T04:00:33.365Z,98022.41
2023-05-05T04:03:01.981Z,98028.69
2023-05-05T04:05:30.736Z,98033.64
2023-05-05T04:07:58.703Z,98035.27
2023-05-05T04:10:26.994Z,98032.80
2023-05-05T04:12:55.825Z,98029.96
2023-05-05T04:15:23.864Z,98033.67
2023-05-05T04:17:52.163Z,98035.30
2023-05-05T04:20:20.241Z,98034.98
2023-05-05T04:22:49.134Z,98034.54
2023-05-05T04:25:18.895Z,98038.25
2023-05-05T04:27:47.258Z,98043.59
2023-05-05T04:30:15.649Z,98045.73
2023-05-05T04:32:43.541Z,98046.18
2023-05-05T04:35:11.799Z,98047.82
2023-05-05T04:37:40.059Z,98046.44
2023-05-05T04:40:09.580Z,98047.24
2023-05-05T04:42:37.748Z,98045.73
2023-05-05T04:45:07.141Z,98049.64
2023-05-05T04:47:38.962Z,98043.66
2023-05-05T04:50:08.207Z,98045.80
2023-05-05T04:52:36.682Z,98047.86
2023-05-05T04:55:05.372Z,98045.02
2023-05-05T04:57:34.255Z,98049.40
2023-05-05T05:00:04.950Z,98051.19
2023-05-05T05:02:33.739Z,98053.27
2023-05-05T05:05:01.684Z,98049.86
2023-05-05T05:07:29.453Z,98046.58
2023-05-05T05:09:57.475Z,98049.14
2023-05-05T05:12:25.355Z,98052.23
2023-05-05T05:14:53.307Z,98055.40
2023-05-05T05:17:22.971Z,98054.02
2023-05-05T05:19:51.089Z,98055.73
2023-05-05T05:22:19.055Z,98054.89
2023-05-05T05:24:47.025Z,98057.92
2023-05-05T05:27:15.122Z,98058.65
2023-05-05T05:29:44.596Z,98053.02
2023-05-05T05:32:12.386Z,98056.86
2023-05-05T05:34:40.835Z,98056.63
2023-05-05T05:37:09.350Z,98058.86
2023-05-05T05:39:38.000Z,98058.29
2023-05-05T05:42:06.595Z,98061.71
2023-05-05T05:44:34.753Z,98060.41
2023-05-05T05:47:03.232Z,98059.52
2023-05-05T05:49:31.088Z,98057.72
2023-05-05T05:51:58.842Z,98059.77
2023-05-05T05:54:26.733Z,98059.34
2023-05-05T05:56:54.716Z,98059.88
2023-05-05T05:59:22.969Z,98062.11
2023-05-05T06:01:51.065Z,98062.26
2023-05-05T06:04:19.194Z,98064.40
2023-05-05T06:06:47.189Z,98063.08
2023-05-05T06:09:15.468Z,98060.20
2023-05-05T06:11:43.514Z,98057.73
2023-05-05T06:14:11.595Z,98062.80
2023-05-05T06:16:39.542Z,98063.19
2023-05-05T06:19:10.929Z,98059.87
2023-05-05T06:21:39.088Z,98060.89
2023-05-05T06:24:06.812Z,98052.16
2023-05-05T06:26:35.741Z,98047.70
2023-05-05T06:29:04.018Z,98049.26
2023-05-05T06:31:31.790Z,98046.63
2023-05-05T06:33:59.754Z,98046.59
2023-05-05T06:36:28.384Z,98047.39
2023-05-05T06:38:56.234Z,98049.54
2023-05-05T06:41:24.289Z,98050.98
2023-05-05T06:43:52.137Z,98046.13
2023-05-05T06:46:20.113Z,98041.63
2023-05-05T06:48:48.071Z,98038.73
2023-05-05T06:51:16.297Z,98039.68
2023-05-05T06:53:44.504Z,98038.38
2023-05-05T06:56:12.237Z,98036.80
2023-05-05T06:58:40.184Z,98037.83
2023-05-05T07:01:08.560Z,98038.05
2023-05-05T07:03:36.506Z,98032.96
2023-05-05T07:06:04.770Z,98028.67
2023-05-05T07:08:32.541Z,98025.08
2023-05-05T07:11:01.205Z,98028.60
2023-05-05T07:13:29.112Z,98025.25
2023-05-05T07:15:56.949Z,98026.93
2023-05-05T07:18:25.037Z,98024.41
2023-05-05T07:20:52.993Z,98021.85
2023-05-05T07:23:20.993Z,98021.33
2023-05-05T07:25:48.935Z,98021.74
2023-05-05T07:28:17.216Z,98020.04
2023-05-05T07:30:45.185Z,98020.73
2023-05-05T07:33:13.048Z,98025.54
2023-05-05T07:35:41.328Z,98022.92
2023-05-05T07:38:10.793Z,98021.73
2023-05-05T07:40:38.889Z,98013.98
2023-05-05T07:43:06.607Z,98013.13
2023-05-05T07:45:34.533Z,98013.33
2023-05-05T07:48:02.347Z,98007.59
2023-05-05T07:50:30.122Z,98003.88
2023-05-05T07:53:10.534Z,98002.56
2023-05-05T07:55:42.189Z,98003.84
2023-05-05T07:58:11.271Z,98002.94
2023-05-05T08:00:39.893Z,98004.98
2023-05-05T08:03:11.264Z,98009.27
2023-05-05T08:05:40.625Z,98008.31
2023-05-05T08:08:08.766Z,98002.81
2023-05-05T08:10:36.708Z,98006.87
2023-05-05T08:13:04.938Z,98009.66
2023-05-05T08:15:33.171Z,98006.29
2023-05-05T08:18:01.023Z,98007.56
2023-05-05T08:20:29.541Z,98007.81
2023-05-05T08:22:57.225Z,98005.14
2023-05-05T08:25:27.116Z,98002.29
2023-05-05T08:27:55.267Z,97999.15
2023-05-05T08:30:23.234Z,98000.69
2023-05-05T08:32:51.915Z,98001.39
2023-05-05T08:35:19.990Z,98006.71
2023-05-05T08:37:47.866Z,98003.27
2023-05-05T08:40:15.822Z,98001.77
2023-05-05T08:42:46.591Z,97999.00
2023-05-05T08:45:14.541Z,97992.58
2023-05-05T08:47:43.644Z,97989.73
2023-05-05T08:50:12.079Z,97989.33
2023-05-05T08:52:41.468Z,97986.41
2023-05-05T08:55:22.181Z,97987.56
2023-05-05T08:57:50.039Z,97991.23
2023-05-05T09:00:21.314Z,97988.25
2023-05-05T09:02:49.483Z,97984.83
2023-05-05T09:05:17.420Z,97990.05
2023-05-05T09:07:47.310Z,97994.26
2023-05-05T09:10:15.830Z,97989.27
2023-05-05T09:12:44.229Z,97989.02
2023-05-05T09:15:13.340Z,97989.47
2023-05-05T09:17:41.673Z,97982.97
2023-05-05T09:20:11.389Z,97985.90
2023-05-05T09:22:40.573Z,97990.46
2023-05-05T09:25:10.348Z,97987.90
2023-05-05T09:27:43.105Z,97985.13
2023-05-05T09:30:12.372Z,97976.75
2023-05-05T09:32:44.808Z,97975.44
2023-05-05T09:35:13.328Z,97977.17
2023-05-05T09:37:41.195Z,97972.95
2023-05-05T09:40:09.392Z,97967.39
2023-05-05T09:42:38.039Z,97966.65
2023-05-05T09:45:18.268Z,97965.55
2023-05-05T09:47:47.036Z,97962.34
2023-05-05T09:50:18.701Z,97960.61
2023-05-05T09:53:00.160Z,97965.20
2023-05-05T09:55:28.695Z,97962.29
2023-05-05T09:57:56.800Z,97956.31
2023-05-05T10:00:37.653Z,97956.62
2023-05-05T10:03:05.676Z,97948.59
2023-05-05T10:05:33.585Z,97945.11
2023-05-05T10:08:12.940Z,97947.10
2023-05-05T10:10:49.596Z,97945.84
2023-05-05T10:13:18.861Z,97950.41
2023-05-05T10:15:48.269Z,97948.08
2023-05-05T10:18:19.348Z,97947.00
2023-05-05T10:20:49.143Z,97950.59
2023-05-05T10:23:20.290Z,97948.31
2023-05-05T10:25:55.215Z,97941.13
2023-05-05T10:28:26.217Z,97935.70
2023-05-05T10:30:56.863Z,97933.63
2023-05-05T10:33:32.133Z,97930.54
2023-05-05T10:36:05.485Z,97925.52
2023-05-05T10:38:34.325Z,97923.15
2023-05-05T10:41:03.224Z,97920.78
2023-05-05T10:43:32.123Z,97919.63
2023-05-05T10:46:00.827Z,97922.20
2023-05-05T10:48:31.968Z,97918.14
2023-05-05T10:51:06.420Z,97916.60
2023-05-05T10:53:42.947Z,97915.03
2023-05-05T10:56:10.978Z,97916.34
2023-05-05T10:58:55.382Z,97912.69
2023-05-05T11:01:31.428Z,97911.63
2023-05-05T11:04:18.603Z,97909.14
2023-05-05T11:07:05.036Z,97905.11
2023-05-05T11:09:33.364Z,97904.91
2023-05-05T11:12:02.581Z,97903.88
2023-05-05T11:14:30.447Z,97903.79
2023-05-05T11:16:58.468Z,97901.89
2023-05-05T11:19:45.753Z,97896.87
2023-05-05T11:22:14.599Z,97890.40
2023-05-05T11:24:42.805Z,97890.20
2023-05-05T11:27:11.618Z,97888.82
2023-05-05T11:29:58.506Z,97881.55
2023-05-05T11:32:26.594Z,97876.23
2023-05-05T11:34:54.648Z,97876.11
2023-05-05T11:37:24.216Z,97880.02
2023-05-05T11:40:16.799Z,97877.29
2023-05-05T11:42:44.654Z,97877.73
2023-05-05T11:45:25.057Z,97873.88
2023-05-05T11:48:13.184Z,97874.46
2023-05-05T11:50:41.126Z,97870.74
2023-05-05T11:53:08.947Z,97869.36
2023-05-05T11:55:36.955Z,97861.33
2023-05-05T11:58:17.642Z,97852.14
2023-05-05T12:00:45.735Z,97853.94
2023-05-05T12:03:14.226Z,97853.86
2023-05-05T12:05:42.244Z,97855.84
2023-05-05T12:08:10.773Z,97850.98
2023-05-05T12:10:38.891Z,97853.30
2023-05-05T12:13:17.391Z,97848.63
2023-05-05T12:15:45.739Z,97844.80
2023-05-05T12:18:20.676Z,97845.23
2023-05-05T12:20:49.511Z,97840.08
2023-05-05T12:23:17.478Z,97838.80
2023-05-05T12:25:46.921Z,97839.51
2023-05-05T12:28:14.765Z,97833.02
2023-05-05T12:30:42.698Z,97835.20
2023-05-05T12:33:10.846Z,97832.37
2023-05-05T12:35:38.969Z,97829.35
2023-05-05T12:38:06.939Z,97826.10
2023-05-05T12:40:45.137Z,97822.15
2023-05-05T12:43:32.752Z,97818.89
2023-05-05T12:46:00.843Z,97815.14
2023-05-05T12:48:28.761Z,97813.68
2023-05-05T12:51:10.098Z,97809.09
2023-05-05T12:53:38.574Z,97806.70
2023-05-05T12:56:06.429Z,97802.93
2023-05-05T12:58:48.671Z,97804.95
2023-05-05T13:01:16.919Z,97803.48
2023-05-05T13:03:45.084Z,97802.09
2023-05-05T13:06:20.827Z,97797.20
2023-05-05T13:08:48.699Z,97798.13
2023-05-05T13:11:16.884Z,97790.80
2023-05-05T13:13:44.854Z,97789.67
2023-05-05T13:16:12.773Z,97790.49
2023-05-05T13:18:44.788Z,97790.66
2023-05-05T13:21:13.065Z,97786.98
2023-05-05T13:23:44.499Z,97786.58
2023-05-05T13:26:13.485Z,97781.27
2023-05-05T13:28:41.555Z,97778.42
2023-05-05T13:31:09.450Z,97774.52
2023-05-05T13:33:37.604Z,97774.93
2023-05-05T13:36:05.773Z,97772.41
2023-05-05T13:38:34.079Z,97774.16
2023-05-05T13:41:02.330Z,97777.24
2023-05-05T13:43:30.284Z,97774.33
2023-05-05T13:46:08.767Z,97774.59
2023-05-05T13:48:44.240Z,97771.52
2023-05-05T13:51:12.116Z,97771.70
2023-05-05T13:53:43.759Z,97765.10
2023-05-05T13:56:11.529Z,97756.83
2023-05-05T13:58:39.497Z,97755.04
2023-05-05T14:01:07.691Z,97752.09
2023-05-05T14:03:36.011Z,97748.38
2023-05-05T14:06:04.318Z,97747.96
2023-05-05T14:08:32.188Z,97748.62
2023-05-05T14:11:00.052Z,97746.53
2023-05-05T14:13:28.633Z,97744.95
2023-05-05T14:15:58.359Z,97742.79
2023-05-05T14:18:26.424Z,97747.48
2023-05-05T14:20:54.809Z,97746.49
2023-05-05T14:23:22.968Z,97746.36
2023-05-05T14:25:50.956Z,97745.21
2023-05-05T14:28:18.895Z,97746.86
2023-05-05T14:30:46.883Z,97743.58
2023-05-05T14:33:14.843Z,97738.07
2023-05-05T14:35:42.736Z,97730.42
2023-05-05T14:38:10.578Z,97729.13
2023-05-05T14:40:38.526Z,97730.27
2023-05-05T14:43:06.413Z,97729.90
2023-05-05T14:45:34.690Z,97727.67
2023-05-05T14:48:02.778Z,97721.27
2023-05-05T14:50:30.832Z,97724.36
2023-05-05T14:52:58.692Z,97732.45
2023-05-05T14:55:26.672Z,97731.48
2023-05-05T14:57:54.632Z,97727.22
2023-05-05T15:00:22.590Z,97725.45
2023-05-05T15:02:50.515Z,97726.77
2023-05-05T15:05:18.632Z,97724.52
2023-05-05T15:07:46.453Z,97723.70
2023-05-05T15:10:14.467Z,97724.52
2023-05-05T15:12:43.221Z,97722.35
2023-05-05T15:15:11.832Z,97719.27
2023-05-05T15:17:41.841Z,97715.48
2023-05-05T15:20:10.126Z,97716.44
2023-05-05T15:22:38.235Z,97715.05
2023-05-05T15:25:09.799Z,97716.38
2023-05-05T15:27:38.958Z,97717.13
2023-05-05T15:30:07.373Z,97710.18
2023-05-05T15:32:35.565Z,97708.11
2023-05-05T15:35:03.573Z,97703.94
2023-05-05T15:37:31.845Z,97705.23
2023-05-05T15:39:59.908Z,97706.13
2023-05-05T15:42:27.832Z,97707.08
2023-05-05T15:44:55.615Z,97707.77
2023-05-05T15:47:23.532Z,97706.08
2023-05-05T15:49:51.588Z,97700.27
2023-05-05T15:52:19.548Z,97699.86
2023-05-05T15:54:47.314Z,97699.04
2023-05-05T15:57:15.275Z,97699.17
2023-05-05T15:59:43.048Z,97695.25
2023-05-05T16:02:11.031Z,97694.77
2023-05-05T16:04:39.089Z,97693.41
2023-05-05T16:07:06.853Z,97695.38
2023-05-05T16:09:34.909Z,97691.17
2023-05-05T16:12:02.980Z,97693.83
2023-05-05T16:14:33.728Z,97688.17
2023-05-05T16:17:04.415Z,97687.79
2023-05-05T16:19:32.346Z,97685.70
2023-05-05T16:22:00.393Z,97684.44
2023-05-05T16:24:28.568Z,97688.36
2023-05-05T16:26:56.652Z,97690.62
2023-05-05T16:29:24.703Z,97693.77
2023-05-05T16:31:52.717Z,97693.03
2023-05-05T16:34:20.647Z,97692.64
2023-05-05T16:36:48.608Z,97688.71
2023-05-05T16:39:16.577Z,97693.83
2023-05-05T16:41:44.654Z,97694.15
2023-05-05T16:44:12.957Z,97699.45
2023-05-05T16:46:40.972Z,97700.13
2023-05-05T16:49:09.122Z,97699.46
2023-05-05T16:51:36.934Z,97702.84
2023-05-05T16:54:04.907Z,97705.96
2023-05-05T16:56:32.759Z,97701.34
2023-05-05T16:59:00.740Z,97703.45
2023-05-05T17:01:28.929Z,97704.08
2023-05-05T17:04:01.883Z,97705.19
2023-05-05T17:06:32.964Z,97708.77
2023-05-05T17:09:00.999Z,97710.17
2023-05-05T17:11:29.174Z,97707.61
2023-05-05T17:13:57.142Z,97710.49
2023-05-05T17:16:25.099Z,97711.43
2023-05-05T17:18:53.805Z,97710.47
2023-05-05T17:21:21.664Z,97710.40
2023-05-05T17:23:49.637Z,97709.75
2023-05-05T17:26:17.519Z,97711.27
2023-05-05T17:28:46.068Z,97713.33
2023-05-05T17:31:13.956Z,97723.34
2023-05-05T17:33:41.805Z,97726.41
2023-05-05T17:36:09.986Z,97729.81
2023-05-05T17:38:37.847Z,97733.52
2023-05-05T17:41:06.539Z,97729.84
2023-05-05T17:43:34.501Z,97732.11
2023-05-05T17:46:02.362Z,97735.19
2023-05-05T17:48:30.642Z,97737.30
2023-05-05T17:50:58.623Z,97739.94
2023-05-05T17:53:26.716Z,97742.77
2023-05-05T17:55:54.966Z,97743.79
2023-05-05T17:58:22.923Z,97744.30
2023-05-05T18:00:51.212Z,97743.30
2023-05-05T18:03:19.576Z,97743.77
2023-05-05T18:05:47.548Z,97750.83
2023-05-05T18:08:15.823Z,97756.88
2023-05-05T18:10:43.621Z,97762.80
2023-05-05T18:13:11.519Z,97763.00
2023-05-05T18:15:40.378Z,97769.52
2023-05-05T18:18:08.348Z,97766.68
2023-05-05T18:20:36.494Z,97772.36
2023-05-05T18:23:04.358Z,97773.85
2023-05-05T18:25:32.623Z,97775.44
2023-05-05T18:28:00.716Z,97776.66
2023-05-05T18:30:28.472Z,97779.58
2023-05-05T18:32:56.480Z,97778.17
2023-05-05T18:35:24.526Z,97782.52
2023-05-05T18:37:52.470Z,97784.11
2023-05-05T18:40:20.199Z,97791.20
2023-05-05T18:42:48.001Z,97791.93
2023-05-05T18:45:15.932Z,97797.20
2023-05-05T18:47:43.994Z,97798.98
2023-05-05T18:50:13.022Z,97802.33
2023-05-05T18:52:41.070Z,97800.86
2023-05-05T18:55:09.262Z,97803.92
2023-05-05T18:57:37.464Z,97807.78
2023-05-05T19:00:05.715Z,97814.10
2023-05-05T19:02:33.580Z,97812.72
2023-05-05T19:05:01.761Z,97813.13
2023-05-05T19:07:35.363Z,97811.51
2023-05-05T19:10:04.597Z,97809.61
2023-05-05T19:12:32.537Z,97812.74
2023-05-05T19:15:01.523Z,97810.74
2023-05-05T19:17:29.520Z,97810.95
2023-05-05T19:19:57.369Z,97813.48
2023-05-05T19:22:25.834Z,97811.43
2023-05-05T19:24:53.702Z,97808.81
2023-05-05T19:27:21.652Z,97810.03
2023-05-05T19:29:52.523Z,97812.58
2023-05-05T19:32:21.123Z,97815.11
2023-05-05T19:34:49.457Z,97815.83
2023-05-05T19:37:17.320Z,97814.92
2023-05-05T19:39:45.824Z,97816.39
2023-05-05T19:42:13.982Z,97814.31
2023-05-05T19:44:42.144Z,97813.73
2023-05-05T19:47:10.987Z,97816.15
2023-05-05T19:49:39.215Z,97815.31
2023-05-05T19:52:07.075Z,97816.00
2023-05-05T19:54:34.940Z,97817.30
2023-05-05T19:57:03.324Z,97819.02
2023-05-05T19:59:31.153Z,97817.44
2023-05-05T20:01:59.202Z,97813.17
2023-05-05T20:04:27.534Z,97816.29
2023-05-05T20:06:55.478Z,97819.77
2023-05-05T20:09:23.473Z,97815.81
2023-05-05T20:11:51.647Z,97817.05
2023-05-05T20:14:19.603Z,97815.56
2023-05-05T20:16:48.088Z,97814.14
2023-05-05T20:19:16.163Z,97814.95
2023-05-05T20:21:44.140Z,97812.59
2023-05-05T20:24:11.990Z,97811.39
2023-05-05T20:26:39.811Z,97811.25
2023-05-05T20:29:07.625Z,97813.81
2023-05-05T20:31:35.650Z,97814.65
2023-05-05T20:34:03.545Z,97819.39
2023-05-05T20:36:31.305Z,97818.58
2023-05-05T20:38:59.598Z,97814.79
2023-05-05T20:41:27.474Z,97815.09
2023-05-05T20:43:55.434Z,97811.90
2023-05-05T20:46:23.328Z,97812.61
2023-05-05T20:48:51.276Z,97811.95
2023-05-05T20:51:19.592Z,97816.59
2023-05-05T20:53:47.721Z,97815.70
2023-05-05T20:56:15.625Z,97814.21
2023-05-05T20:58:43.572Z,97813.88
2023-05-05T21:01:11.771Z,97815.05
2023-05-05T21:03:39.797Z,97814.30
2023-05-05T21:06:07.758Z,97811.42
2023-05-05T21:08:35.629Z,97812.64
2023-05-05T21:11:08.207Z,97813.21
2023-05-05T21:13:36.577Z,97815.95
2023-05-05T21:16:04.667Z,97814.88
2023-05-05T21:18:32.617Z,97812.35
2023-05-05T21:21:00.509Z,97812.38
2023-05-05T21:23:28.465Z,97815.30
2023-05-05T21:25:56.735Z,97817.11
2023-05-05T21:28:24.617Z,97817.38
2023-05-05T21:33:23.606Z,97821.34
2023-05-05T21:35:51.498Z,97823.23
2023-05-05T21:38:19.259Z,97823.30
2023-05-05T21:40:47.191Z,97822.14
2023-05-05T21:43:15.143Z,97819.87
2023-05-05T21:45:43.032Z,97818.37
2023-05-05T21:48:11.004Z,97816.46
2023-05-05T21:50:39.192Z,97815.34
2023-05-05T21:53:07.167Z,97817.77
2023-05-05T21:55:35.010Z,97815.91
2023-05-05T21:58:02.898Z,97816.92
2023-05-05T22:00:31.256Z,97821.38
2023-05-05T22:02:59.026Z,97822.29
2023-05-05T22:05:26.985Z,97818.36
2023-05-05T22:07:54.960Z,97817.64
2023-05-05T22:10:23.430Z,97815.71
2023-05-05T22:12:51.464Z,97816.08
2023-05-05T22:15:20.187Z,97816.08
2023-05-05T22:17:47.994Z,97814.59
2023-05-05T22:20:16.892Z,97816.13
2023-05-05T22:22:44.816Z,97816.56
2023-05-05T22:25:12.775Z,97814.01
2023-05-05T22:27:41.167Z,97813.48
2023-05-05T22:30:09.430Z,97813.38
2023-05-05T22:32:37.518Z,97811.73
2023-05-05T22:35:06.096Z,97809.57
2023-05-05T22:37:33.846Z,97811.52
2023-05-05T22:40:01.932Z,97808.94
2023-05-05T22:42:30.506Z,97806.64
2023-05-05T22:44:58.469Z,97810.23
2023-05-05T22:47:26.376Z,97807.94
2023-05-05T22:49:54.282Z,97806.20
2023-05-05T22:52:22.172Z,97806.30
2023-05-05T22:54:50.145Z,97803.73
2023-05-05T22:57:18.114Z,97798.89
2023-05-05T22:59:46.058Z,97798.23
2023-05-05T23:02:13.849Z,97798.58
2023-05-05T23:04:43.120Z,97798.12
2023-05-05T23:07:11.922Z,97794.62
2023-05-05T23:09:41.036Z,97795.66
2023-05-05T23:12:09.414Z,97803.05
2023-05-05T23:14:37.272Z,97801.35
2023-05-05T23:17:05.425Z,97800.85
2023-05-05T23:19:33.526Z,97796.86
2023-05-05T23:22:01.969Z,97796.30
2023-05-05T23:24:29.858Z,97796.23
2023-05-05T23:27:02.286Z,97795.73
2023-05-05T23:29:30.406Z,97798.38
2023-05-05T23:31:58.508Z,97795.61
2023-05-05T23:34:26.763Z,97795.98
2023-05-05T23:36:54.662Z,97794.90
2023-05-05T23:39:22.595Z,97792.03
2023-05-05T23:41:50.448Z,97793.64
2023-05-05T23:44:18.308Z,97790.50
2023-05-05T23:46:46.575Z,97791.29
2023-05-05T23:49:14.394Z,97787.17
2023-05-05T23:51:42.211Z,97785.62
2023-05-05T23:54:10.094Z,97781.89
2023-05-05T23:56:37.998Z,97781.23
2023-05-05T23:59:06.639Z,97779.52
